<?xml version="1.0" encoding="UTF-8" standalone="no" ?>
<gpx xmlns="http://www.topografix.com/GPX/1/1" xmlns:xsi="http://www.w3.org/2001/XMLSchema-instance" xsi:schemaLocation="http://www.topografix.com/GPX/1/1 http://www.topografix.com/GPX/1/1/gpx.xsd" version="1.1" creator="VisuGPX - https://www.visugpx.com">
  <metadata>
    <name>Clisson_Vertou_30km</name>
    <desc><![CDATA[gnerando idor:7393430]]></desc>
  </metadata>
  <trk>
    <name><![CDATA[ClissonVertou_30.4km-7393430]]></name>
    <extensions>
      <line xmlns="http://www.topografix.com/GPX/gpx_style/0/2">
        <color>0000FF</color>
        <width>4</width>
      </line>
    </extensions>
    <trkseg>
      <trkpt lat="47.08602" lon="-1.28656">
        <ele>42</ele>
        <time>2023-11-01T13:55:30Z</time>
      </trkpt>
      <trkpt lat="47.08815" lon="-1.28295">
        <ele>37</ele>
        <time>2023-11-01T14:02:44Z</time>
      </trkpt>
      <trkpt lat="47.08862" lon="-1.28329">
        <ele>37</ele>
        <time>2023-11-01T14:03:54Z</time>
      </trkpt>
      <trkpt lat="47.08906" lon="-1.28256">
        <ele>33</ele>
        <time>2023-11-01T14:05:23Z</time>
      </trkpt>
      <trkpt lat="47.08929" lon="-1.28282">
        <ele>32</ele>
        <time>2023-11-01T14:06:01Z</time>
      </trkpt>
      <trkpt lat="47.08973" lon="-1.28244">
        <ele>24</ele>
        <time>2023-11-01T14:07:09Z</time>
      </trkpt>
      <trkpt lat="47.09023" lon="-1.28248">
        <ele>18</ele>
        <time>2023-11-01T14:08:16Z</time>
      </trkpt>
      <trkpt lat="47.09075" lon="-1.28081">
        <ele>23</ele>
        <time>2023-11-01T14:11:03Z</time>
      </trkpt>
      <trkpt lat="47.0921" lon="-1.28149">
        <ele>24</ele>
        <time>2023-11-01T14:14:13Z</time>
      </trkpt>
      <trkpt lat="47.09195" lon="-1.28256">
        <ele>18</ele>
        <time>2023-11-01T14:15:53Z</time>
      </trkpt>
      <trkpt lat="47.09359" lon="-1.28437">
        <ele>16</ele>
        <time>2023-11-01T14:20:26Z</time>
      </trkpt>
      <trkpt lat="47.09543" lon="-1.28501">
        <ele>18</ele>
        <time>2023-11-01T14:24:39Z</time>
      </trkpt>
      <trkpt lat="47.09735" lon="-1.2857">
        <ele>17</ele>
        <time>2023-11-01T14:29:03Z</time>
      </trkpt>
      <trkpt lat="47.09803" lon="-1.28437">
        <ele>31</ele>
        <time>2023-11-01T14:31:34Z</time>
      </trkpt>
      <trkpt lat="47.09844" lon="-1.28523">
        <ele>29</ele>
        <time>2023-11-01T14:33:09Z</time>
      </trkpt>
      <trkpt lat="47.09998" lon="-1.2872">
        <ele>28</ele>
        <time>2023-11-01T14:37:42Z</time>
      </trkpt>
      <trkpt lat="47.09884" lon="-1.28913">
        <ele>17</ele>
        <time>2023-11-01T14:41:34Z</time>
      </trkpt>
      <trkpt lat="47.09922" lon="-1.2899">
        <ele>17</ele>
        <time>2023-11-01T14:43:00Z</time>
      </trkpt>
      <trkpt lat="47.09958" lon="-1.28922">
        <ele>24</ele>
        <time>2023-11-01T14:44:18Z</time>
      </trkpt>
      <trkpt lat="47.10048" lon="-1.28741">
        <ele>29</ele>
        <time>2023-11-01T14:47:42Z</time>
      </trkpt>
      <trkpt lat="47.10267" lon="-1.28982">
        <ele>18</ele>
        <time>2023-11-01T14:53:47Z</time>
      </trkpt>
      <trkpt lat="47.10253" lon="-1.29261">
        <ele>16</ele>
        <time>2023-11-01T14:58:01Z</time>
      </trkpt>
      <trkpt lat="47.10372" lon="-1.29372">
        <ele>23</ele>
        <time>2023-11-01T15:01:09Z</time>
      </trkpt>
      <trkpt lat="47.1051" lon="-1.29565">
        <ele>25</ele>
        <time>2023-11-01T15:05:24Z</time>
      </trkpt>
      <trkpt lat="47.10629" lon="-1.29857">
        <ele>20</ele>
        <time>2023-11-01T15:10:33Z</time>
      </trkpt>
      <trkpt lat="47.1077" lon="-1.30368">
        <ele>18</ele>
        <time>2023-11-01T15:18:54Z</time>
      </trkpt>
      <trkpt lat="47.10562" lon="-1.3048">
        <ele>13</ele>
        <time>2023-11-01T15:23:49Z</time>
      </trkpt>
      <trkpt lat="47.10562" lon="-1.30544">
        <ele>12</ele>
        <time>2023-11-01T15:24:47Z</time>
      </trkpt>
      <trkpt lat="47.10466" lon="-1.30711">
        <ele>22</ele>
        <time>2023-11-01T15:28:06Z</time>
      </trkpt>
      <trkpt lat="47.10676" lon="-1.30964">
        <ele>26</ele>
        <time>2023-11-01T15:34:08Z</time>
      </trkpt>
      <trkpt lat="47.10846" lon="-1.31346">
        <ele>32</ele>
        <time>2023-11-01T15:41:03Z</time>
      </trkpt>
      <trkpt lat="47.1081" lon="-1.31428">
        <ele>33</ele>
        <time>2023-11-01T15:42:31Z</time>
      </trkpt>
      <trkpt lat="47.11152" lon="-1.31896">
        <ele>28</ele>
        <time>2023-11-01T15:52:55Z</time>
      </trkpt>
      <trkpt lat="47.11339" lon="-1.31544">
        <ele>10</ele>
        <time>2023-11-01T15:59:41Z</time>
      </trkpt>
      <trkpt lat="47.11544" lon="-1.3172">
        <ele>10</ele>
        <time>2023-11-01T16:04:57Z</time>
      </trkpt>
      <trkpt lat="47.11675" lon="-1.31994">
        <ele>9</ele>
        <time>2023-11-01T16:10:02Z</time>
      </trkpt>
      <trkpt lat="47.1162" lon="-1.32089">
        <ele>15</ele>
        <time>2023-11-01T16:11:55Z</time>
      </trkpt>
      <trkpt lat="47.11666" lon="-1.322">
        <ele>21</ele>
        <time>2023-11-01T16:13:53Z</time>
      </trkpt>
      <trkpt lat="47.1159" lon="-1.32355">
        <ele>29</ele>
        <time>2023-11-01T16:16:46Z</time>
      </trkpt>
      <trkpt lat="47.11801" lon="-1.32544">
        <ele>25</ele>
        <time>2023-11-01T16:22:16Z</time>
      </trkpt>
      <trkpt lat="47.11739" lon="-1.32694">
        <ele>29</ele>
        <time>2023-11-01T16:24:55Z</time>
      </trkpt>
      <trkpt lat="47.1178" lon="-1.32831">
        <ele>30</ele>
        <time>2023-11-01T16:27:11Z</time>
      </trkpt>
      <trkpt lat="47.11929" lon="-1.32754">
        <ele>31</ele>
        <time>2023-11-01T16:30:42Z</time>
      </trkpt>
      <trkpt lat="47.12058" lon="-1.32861">
        <ele>33</ele>
        <time>2023-11-01T16:34:00Z</time>
      </trkpt>
      <trkpt lat="47.12174" lon="-1.32681">
        <ele>30</ele>
        <time>2023-11-01T16:37:45Z</time>
      </trkpt>
      <trkpt lat="47.12279" lon="-1.32844">
        <ele>29</ele>
        <time>2023-11-01T16:41:09Z</time>
      </trkpt>
      <trkpt lat="47.12385" lon="-1.33106">
        <ele>26</ele>
        <time>2023-11-01T16:45:46Z</time>
      </trkpt>
      <trkpt lat="47.12528" lon="-1.33213">
        <ele>26</ele>
        <time>2023-11-01T16:49:20Z</time>
      </trkpt>
      <trkpt lat="47.12478" lon="-1.33325">
        <ele>31</ele>
        <time>2023-11-01T16:51:21Z</time>
      </trkpt>
      <trkpt lat="47.12621" lon="-1.33565">
        <ele>24</ele>
        <time>2023-11-01T16:56:11Z</time>
      </trkpt>
      <trkpt lat="47.1272" lon="-1.3411">
        <ele>19</ele>
        <time>2023-11-01T17:04:43Z</time>
      </trkpt>
      <trkpt lat="47.12717" lon="-1.3432">
        <ele>25</ele>
        <time>2023-11-01T17:07:54Z</time>
      </trkpt>
      <trkpt lat="47.12779" lon="-1.34406">
        <ele>29</ele>
        <time>2023-11-01T17:09:48Z</time>
      </trkpt>
      <trkpt lat="47.1279" lon="-1.34535">
        <ele>35</ele>
        <time>2023-11-01T17:11:46Z</time>
      </trkpt>
      <trkpt lat="47.12934" lon="-1.34904">
        <ele>41</ele>
        <time>2023-11-01T17:18:12Z</time>
      </trkpt>
      <trkpt lat="47.13068" lon="-1.34797">
        <ele>37</ele>
        <time>2023-11-01T17:21:35Z</time>
      </trkpt>
      <trkpt lat="47.13322" lon="-1.34762">
        <ele>35</ele>
        <time>2023-11-01T17:27:16Z</time>
      </trkpt>
      <trkpt lat="47.13374" lon="-1.34715">
        <ele>35</ele>
        <time>2023-11-01T17:28:37Z</time>
      </trkpt>
      <trkpt lat="47.13625" lon="-1.34827">
        <ele>28</ele>
        <time>2023-11-01T17:34:27Z</time>
      </trkpt>
      <trkpt lat="47.13643" lon="-1.34565">
        <ele>21</ele>
        <time>2023-11-01T17:38:26Z</time>
      </trkpt>
      <trkpt lat="47.13745" lon="-1.34569">
        <ele>11</ele>
        <time>2023-11-01T17:40:43Z</time>
      </trkpt>
      <trkpt lat="47.13795" lon="-1.34986">
        <ele>11</ele>
        <time>2023-11-01T17:47:07Z</time>
      </trkpt>
      <trkpt lat="47.13731" lon="-1.35222">
        <ele>11</ele>
        <time>2023-11-01T17:50:58Z</time>
      </trkpt>
      <trkpt lat="47.13763" lon="-1.35432">
        <ele>10</ele>
        <time>2023-11-01T17:54:13Z</time>
      </trkpt>
      <trkpt lat="47.13678" lon="-1.35496">
        <ele>15</ele>
        <time>2023-11-01T17:56:20Z</time>
      </trkpt>
      <trkpt lat="47.13719" lon="-1.35814">
        <ele>12</ele>
        <time>2023-11-01T18:01:14Z</time>
      </trkpt>
      <trkpt lat="47.13588" lon="-1.35715">
        <ele>16</ele>
        <time>2023-11-01T18:04:31Z</time>
      </trkpt>
      <trkpt lat="47.13552" lon="-1.35853">
        <ele>13</ele>
        <time>2023-11-01T18:06:45Z</time>
      </trkpt>
      <trkpt lat="47.1362" lon="-1.36016">
        <ele>12</ele>
        <time>2023-11-01T18:09:38Z</time>
      </trkpt>
      <trkpt lat="47.13628" lon="-1.36445">
        <ele>11</ele>
        <time>2023-11-01T18:16:08Z</time>
      </trkpt>
      <trkpt lat="47.13643" lon="-1.36629">
        <ele>19</ele>
        <time>2023-11-01T18:18:56Z</time>
      </trkpt>
      <trkpt lat="47.13792" lon="-1.36805">
        <ele>18</ele>
        <time>2023-11-01T18:23:11Z</time>
      </trkpt>
      <trkpt lat="47.13786" lon="-1.37204">
        <ele>24</ele>
        <time>2023-11-01T18:29:14Z</time>
      </trkpt>
      <trkpt lat="47.14049" lon="-1.37277">
        <ele>13</ele>
        <time>2023-11-01T18:35:11Z</time>
      </trkpt>
      <trkpt lat="47.14215" lon="-1.37264">
        <ele>10</ele>
        <time>2023-11-01T18:38:53Z</time>
      </trkpt>
      <trkpt lat="47.14338" lon="-1.3738">
        <ele>12</ele>
        <time>2023-11-01T18:42:08Z</time>
      </trkpt>
      <trkpt lat="47.14472" lon="-1.37998">
        <ele>10</ele>
        <time>2023-11-01T18:51:56Z</time>
      </trkpt>
      <trkpt lat="47.14367" lon="-1.38123">
        <ele>13</ele>
        <time>2023-11-01T18:54:57Z</time>
      </trkpt>
      <trkpt lat="47.14285" lon="-1.38479">
        <ele>9</ele>
        <time>2023-11-01T19:00:38Z</time>
      </trkpt>
      <trkpt lat="47.14163" lon="-1.38685">
        <ele>8</ele>
        <time>2023-11-01T19:04:46Z</time>
      </trkpt>
      <trkpt lat="47.14195" lon="-1.38814">
        <ele>7</ele>
        <time>2023-11-01T19:06:50Z</time>
      </trkpt>
      <trkpt lat="47.14163" lon="-1.38955">
        <ele>14</ele>
        <time>2023-11-01T19:09:05Z</time>
      </trkpt>
      <trkpt lat="47.14317" lon="-1.3923">
        <ele>10</ele>
        <time>2023-11-01T19:14:29Z</time>
      </trkpt>
      <trkpt lat="47.14306" lon="-1.39565">
        <ele>7</ele>
        <time>2023-11-01T19:19:33Z</time>
      </trkpt>
      <trkpt lat="47.14253" lon="-1.39569">
        <ele>11</ele>
        <time>2023-11-01T19:20:44Z</time>
      </trkpt>
      <trkpt lat="47.14239" lon="-1.39629">
        <ele>11</ele>
        <time>2023-11-01T19:21:41Z</time>
      </trkpt>
      <trkpt lat="47.14128" lon="-1.39668">
        <ele>22</ele>
        <time>2023-11-01T19:24:14Z</time>
      </trkpt>
      <trkpt lat="47.14095" lon="-1.39784">
        <ele>30</ele>
        <time>2023-11-01T19:26:08Z</time>
      </trkpt>
      <trkpt lat="47.14177" lon="-1.39895">
        <ele>32</ele>
        <time>2023-11-01T19:28:37Z</time>
      </trkpt>
      <trkpt lat="47.1423" lon="-1.4002">
        <ele>37</ele>
        <time>2023-11-01T19:30:50Z</time>
      </trkpt>
      <trkpt lat="47.14285" lon="-1.39955">
        <ele>31</ele>
        <time>2023-11-01T19:32:24Z</time>
      </trkpt>
      <trkpt lat="47.14402" lon="-1.40007">
        <ele>34</ele>
        <time>2023-11-01T19:35:08Z</time>
      </trkpt>
      <trkpt lat="47.14525" lon="-1.39985">
        <ele>34</ele>
        <time>2023-11-01T19:37:53Z</time>
      </trkpt>
      <trkpt lat="47.14671" lon="-1.39779">
        <ele>24</ele>
        <time>2023-11-01T19:42:23Z</time>
      </trkpt>
      <trkpt lat="47.14773" lon="-1.39745">
        <ele>16</ele>
        <time>2023-11-01T19:44:42Z</time>
      </trkpt>
      <trkpt lat="47.14825" lon="-1.3999">
        <ele>13</ele>
        <time>2023-11-01T19:48:35Z</time>
      </trkpt>
      <trkpt lat="47.14831" lon="-1.40088">
        <ele>11</ele>
        <time>2023-11-01T19:50:05Z</time>
      </trkpt>
      <trkpt lat="47.14738" lon="-1.40148">
        <ele>22</ele>
        <time>2023-11-01T19:52:20Z</time>
      </trkpt>
      <trkpt lat="47.14685" lon="-1.40393">
        <ele>35</ele>
        <time>2023-11-01T19:56:14Z</time>
      </trkpt>
      <trkpt lat="47.14726" lon="-1.40719">
        <ele>40</ele>
        <time>2023-11-01T20:01:14Z</time>
      </trkpt>
      <trkpt lat="47.14854" lon="-1.40934">
        <ele>43</ele>
        <time>2023-11-01T20:05:34Z</time>
      </trkpt>
      <trkpt lat="47.15021" lon="-1.4105">
        <ele>37</ele>
        <time>2023-11-01T20:09:40Z</time>
      </trkpt>
      <trkpt lat="47.15199" lon="-1.41075">
        <ele>22</ele>
        <time>2023-11-01T20:13:39Z</time>
      </trkpt>
      <trkpt lat="47.15243" lon="-1.41226">
        <ele>11</ele>
        <time>2023-11-01T20:16:08Z</time>
      </trkpt>
      <trkpt lat="47.15149" lon="-1.4126">
        <ele>15</ele>
        <time>2023-11-01T20:18:17Z</time>
      </trkpt>
      <trkpt lat="47.14951" lon="-1.41474">
        <ele>15</ele>
        <time>2023-11-01T20:23:45Z</time>
      </trkpt>
      <trkpt lat="47.14802" lon="-1.41234">
        <ele>28</ele>
        <time>2023-11-01T20:28:40Z</time>
      </trkpt>
      <trkpt lat="47.14516" lon="-1.41174">
        <ele>43</ele>
        <time>2023-11-01T20:35:06Z</time>
      </trkpt>
      <trkpt lat="47.1439" lon="-1.41286">
        <ele>43</ele>
        <time>2023-11-01T20:38:22Z</time>
      </trkpt>
      <trkpt lat="47.14402" lon="-1.41586">
        <ele>45</ele>
        <time>2023-11-01T20:42:55Z</time>
      </trkpt>
      <trkpt lat="47.14297" lon="-1.41629">
        <ele>45</ele>
        <time>2023-11-01T20:45:20Z</time>
      </trkpt>
      <trkpt lat="47.14218" lon="-1.41698">
        <ele>41</ele>
        <time>2023-11-01T20:47:23Z</time>
      </trkpt>
      <trkpt lat="47.14049" lon="-1.41839">
        <ele>14</ele>
        <time>2023-11-01T20:51:42Z</time>
      </trkpt>
      <trkpt lat="47.14093" lon="-1.41929">
        <ele>9</ele>
        <time>2023-11-01T20:53:23Z</time>
      </trkpt>
      <trkpt lat="47.14411" lon="-1.42397">
        <ele>11</ele>
        <time>2023-11-01T21:03:23Z</time>
      </trkpt>
      <trkpt lat="47.14545" lon="-1.42303">
        <ele>23</ele>
        <time>2023-11-01T21:06:41Z</time>
      </trkpt>
      <trkpt lat="47.14522" lon="-1.42217">
        <ele>23</ele>
        <time>2023-11-01T21:08:05Z</time>
      </trkpt>
      <trkpt lat="47.14706" lon="-1.4214">
        <ele>8</ele>
        <time>2023-11-01T21:12:21Z</time>
      </trkpt>
      <trkpt lat="47.14831" lon="-1.42273">
        <ele>12</ele>
        <time>2023-11-01T21:15:46Z</time>
      </trkpt>
      <trkpt lat="47.1507" lon="-1.42371">
        <ele>14</ele>
        <time>2023-11-01T21:21:18Z</time>
      </trkpt>
      <trkpt lat="47.15237" lon="-1.42676">
        <ele>17</ele>
        <time>2023-11-01T21:27:13Z</time>
      </trkpt>
      <trkpt lat="47.15278" lon="-1.42976">
        <ele>22</ele>
        <time>2023-11-01T21:31:51Z</time>
      </trkpt>
      <trkpt lat="47.15225" lon="-1.43015">
        <ele>25</ele>
        <time>2023-11-01T21:33:10Z</time>
      </trkpt>
      <trkpt lat="47.15313" lon="-1.4323">
        <ele>11</ele>
        <time>2023-11-01T21:36:57Z</time>
      </trkpt>
      <trkpt lat="47.15286" lon="-1.43436">
        <ele>12</ele>
        <time>2023-11-01T21:40:08Z</time>
      </trkpt>
      <trkpt lat="47.15316" lon="-1.43577">
        <ele>9</ele>
        <time>2023-11-01T21:42:22Z</time>
      </trkpt>
      <trkpt lat="47.15295" lon="-1.43895">
        <ele>12</ele>
        <time>2023-11-01T21:47:12Z</time>
      </trkpt>
      <trkpt lat="47.15391" lon="-1.44067">
        <ele>13</ele>
        <time>2023-11-01T21:50:34Z</time>
      </trkpt>
      <trkpt lat="47.15391" lon="-1.44324">
        <ele>12</ele>
        <time>2023-11-01T21:54:27Z</time>
      </trkpt>
      <trkpt lat="47.15502" lon="-1.4441">
        <ele>19</ele>
        <time>2023-11-01T21:57:14Z</time>
      </trkpt>
      <trkpt lat="47.15607" lon="-1.44401">
        <ele>25</ele>
        <time>2023-11-01T21:59:35Z</time>
      </trkpt>
      <trkpt lat="47.15511" lon="-1.44496">
        <ele>17</ele>
        <time>2023-11-01T22:02:09Z</time>
      </trkpt>
      <trkpt lat="47.15426" lon="-1.44757">
        <ele>13</ele>
        <time>2023-11-01T22:06:32Z</time>
      </trkpt>
      <trkpt lat="47.15447" lon="-1.44946">
        <ele>14</ele>
        <time>2023-11-01T22:09:26Z</time>
      </trkpt>
      <trkpt lat="47.15508" lon="-1.44951">
        <ele>19</ele>
        <time>2023-11-01T22:10:47Z</time>
      </trkpt>
      <trkpt lat="47.15529" lon="-1.45101">
        <ele>16</ele>
        <time>2023-11-01T22:13:06Z</time>
      </trkpt>
      <trkpt lat="47.15686" lon="-1.45019">
        <ele>22</ele>
        <time>2023-11-01T22:16:48Z</time>
      </trkpt>
      <trkpt lat="47.15765" lon="-1.45354">
        <ele>29</ele>
        <time>2023-11-01T22:22:10Z</time>
      </trkpt>
      <trkpt lat="47.15826" lon="-1.45414">
        <ele>32</ele>
        <time>2023-11-01T22:23:48Z</time>
      </trkpt>
      <trkpt lat="47.15791" lon="-1.45659">
        <ele>30</ele>
        <time>2023-11-01T22:27:35Z</time>
      </trkpt>
      <trkpt lat="47.15987" lon="-1.45646">
        <ele>30</ele>
        <time>2023-11-01T22:31:57Z</time>
      </trkpt>
      <trkpt lat="47.16016" lon="-1.45757">
        <ele>27</ele>
        <time>2023-11-01T22:33:45Z</time>
      </trkpt>
      <trkpt lat="47.16159" lon="-1.45732">
        <ele>26</ele>
        <time>2023-11-01T22:36:57Z</time>
      </trkpt>
      <trkpt lat="47.16322" lon="-1.45504">
        <ele>30</ele>
        <time>2023-11-01T22:41:57Z</time>
      </trkpt>
      <trkpt lat="47.16445" lon="-1.45405">
        <ele>35</ele>
        <time>2023-11-01T22:45:04Z</time>
      </trkpt>
      <trkpt lat="47.16433" lon="-1.45302">
        <ele>35</ele>
        <time>2023-11-01T22:46:39Z</time>
      </trkpt>
      <trkpt lat="47.16582" lon="-1.45281">
        <ele>38</ele>
        <time>2023-11-01T22:49:59Z</time>
      </trkpt>
      <trkpt lat="47.16597" lon="-1.45414">
        <ele>37</ele>
        <time>2023-11-01T22:52:01Z</time>
      </trkpt>
      <trkpt lat="47.1676" lon="-1.45526">
        <ele>38</ele>
        <time>2023-11-01T22:56:01Z</time>
      </trkpt>
      <trkpt lat="47.16868" lon="-1.45515">
        <ele>39</ele>
        <time>2023-11-01T22:58:26Z</time>
      </trkpt>
      <trkpt lat="47.17259" lon="-1.45326">
        <ele>32</ele>
        <time>2023-11-01T23:07:35Z</time>
      </trkpt>
      <trkpt lat="47.17354" lon="-1.45416">
        <ele>29</ele>
        <time>2023-11-01T23:10:06Z</time>
      </trkpt>
      <trkpt lat="47.17469" lon="-1.45333">
        <ele>27</ele>
        <time>2023-11-01T23:12:57Z</time>
      </trkpt>
      <trkpt lat="47.17791" lon="-1.45564">
        <ele>22</ele>
        <time>2023-11-01T23:20:55Z</time>
      </trkpt>
      <trkpt lat="47.18" lon="-1.45878">
        <ele>19</ele>
        <time>2023-11-01T23:27:33Z</time>
      </trkpt>
      <trkpt lat="47.18306" lon="-1.46251">
        <ele>34</ele>
        <time>2023-11-01T23:36:24Z</time>
      </trkpt>
      <trkpt lat="47.18373" lon="-1.46358">
        <ele>35</ele>
        <time>2023-11-01T23:38:36Z</time>
      </trkpt>
      <trkpt lat="47.1842" lon="-1.46496">
        <ele>35</ele>
        <time>2023-11-01T23:40:56Z</time>
      </trkpt>
      <trkpt lat="47.1844" lon="-1.47169">
        <ele>23</ele>
        <time>2023-11-01T23:51:07Z</time>
      </trkpt>
      <trkpt lat="47.18361" lon="-1.47272">
        <ele>18</ele>
        <time>2023-11-01T23:53:28Z</time>
      </trkpt>
      <trkpt lat="47.18402" lon="-1.47611">
        <ele>20</ele>
        <time>2023-11-01T23:58:40Z</time>
      </trkpt>
      <trkpt lat="47.18679" lon="-1.4771">
        <ele>30</ele>
        <time>2023-11-02T00:05:00Z</time>
      </trkpt>
    </trkseg>
  </trk>
</gpx>